Time;durP1;ratioP1;P1;durP2;ratioP2;P2;SDS_P1;SDS_P2;PMS_P1;PMS_P2;Temp;Humidity;BMP_temperature;BMP_pressure;BME280_temperature;BME280_humidity;BME280_pressure;Samples;Min_cycle;Max_cycle;Signal;HPM_P1;HPM_P2
2022/01/12 00:02:32;;;;;;;15.47;8.97;;;0.00;99.90;;;;;;5052497;28;20774;-74
2022/01/12 00:05:22;;;;;;;16.80;8.83;;;0.10;99.90;;;;;;5035788;28;20223;-72
2022/01/12 00:08:11;;;;;;;18.03;10.23;;;0.00;99.90;;;;;;5041426;28;20222;-74
2022/01/12 00:11:00;;;;;;;18.80;10.13;;;0.00;99.90;;;;;;5042373;28;20238;-72
2022/01/12 00:13:51;;;;;;;19.40;10.20;;;0.10;99.90;;;;;;5036583;28;20227;-72
2022/01/12 00:16:41;;;;;;;18.97;10.40;;;0.10;99.90;;;;;;5054808;28;20704;-73
2022/01/12 00:19:30;;;;;;;16.03;9.20;;;0.10;99.90;;;;;;5048124;28;20242;-73
2022/01/12 00:22:20;;;;;;;15.70;9.03;;;0.10;99.90;;;;;;5054886;28;20227;-72
2022/01/12 00:25:25;;;;;;;19.57;10.00;;;0.20;99.90;;;;;;5054436;28;20214;-74
2022/01/12 00:34:28;;;;;;;14.17;8.23;;;0.10;99.90;;;;;;5050424;28;20222;-73
2022/01/12 00:37:17;;;;;;;12.93;8.20;;;0.00;99.90;;;;;;5040713;28;20630;-73
2022/01/12 00:40:08;;;;;;;17.60;9.03;;;0.00;99.90;;;;;;5054570;28;20226;-73
2022/01/12 00:42:57;;;;;;;15.93;8.00;;;0.10;99.90;;;;;;5039302;28;20333;-75
2022/01/12 00:45:46;;;;;;;13.40;8.03;;;0.10;99.90;;;;;;5035445;28;20222;-74
2022/01/12 00:48:36;;;;;;;13.10;8.23;;;0.20;99.90;;;;;;5050580;28;20247;-74
2022/01/12 00:51:26;;;;;;;14.53;8.53;;;0.20;99.90;;;;;;5048718;28;20217;-73
2022/01/12 00:54:15;;;;;;;13.07;7.63;;;0.20;99.90;;;;;;5037748;28;20524;-75
2022/01/12 00:57:06;;;;;;;13.00;6.87;;;0.20;99.90;;;;;;5038396;28;20361;-74
2022/01/12 00:59:55;;;;;;;11.97;7.27;;;-0.20;99.90;;;;;;5051769;28;20232;-75
2022/01/12 01:02:44;;;;;;;14.83;7.60;;;-0.20;99.90;;;;;;5050794;28;20219;-74
2022/01/12 01:05:33;;;;;;;14.30;7.43;;;-0.20;99.90;;;;;;5042101;28;20250;-73
2022/01/12 01:08:23;;;;;;;15.13;7.57;;;-0.40;99.90;;;;;;5038057;28;20323;-75
2022/01/12 01:11:12;;;;;;;13.93;8.00;;;-0.30;99.90;;;;;;5042359;28;20254;-73
2022/01/12 01:14:14;;;;;;;12.37;7.17;;;-0.20;99.90;;;;;;5042219;28;20226;-74
2022/01/12 01:25:26;;;;;;;13.77;8.70;;;-0.20;99.90;;;;;;5043995;28;20340;-74
2022/01/12 01:26:53;;;;;;;12.87;7.20;;;0.00;99.90;;;;;;4959925;28;21003;-73
2022/01/12 01:29:43;;;;;;;13.53;7.87;;;-0.20;99.90;;;;;;5036246;28;20416;-74
2022/01/12 01:32:35;;;;;;;14.07;7.80;;;-0.10;99.90;;;;;;5036243;28;20223;-72
2022/01/12 01:35:26;;;;;;;14.83;8.23;;;0.00;99.90;;;;;;5039461;28;20222;-74
2022/01/12 01:38:15;;;;;;;14.67;8.73;;;-0.10;99.90;;;;;;5034458;28;20218;-74
2022/01/12 01:41:04;;;;;;;14.60;8.37;;;0.00;99.90;;;;;;5057152;28;20717;-72
2022/01/12 01:44:19;;;;;;;16.43;8.70;;;0.00;99.90;;;;;;5050969;28;20222;-72
2022/01/12 01:53:30;;;;;;;15.53;8.90;;;0.10;99.90;;;;;;5040103;28;20690;-71
2022/01/12 01:56:19;;;;;;;13.23;7.73;;;0.20;99.90;;;;;;5047604;28;20244;-73
2022/01/12 01:59:08;;;;;;;15.23;8.47;;;0.20;99.90;;;;;;5034553;28;20221;-72
2022/01/12 02:02:02;;;;;;;16.83;9.13;;;0.20;99.90;;;;;;5039108;28;20232;-73
2022/01/12 02:04:52;;;;;;;15.07;7.97;;;0.20;99.90;;;;;;5033315;28;20225;-71
2022/01/12 02:07:41;;;;;;;20.17;9.97;;;0.20;99.90;;;;;;5040145;28;20738;-72
2022/01/12 02:10:30;;;;;;;18.27;9.27;;;0.20;99.90;;;;;;5047023;28;20228;-74
2022/01/12 02:13:19;;;;;;;19.23;9.63;;;0.30;99.90;;;;;;5039931;28;20347;-72
2022/01/12 02:16:08;;;;;;;19.67;9.57;;;0.10;99.90;;;;;;5035197;28;20298;-71
2022/01/12 02:19:17;;;;;;;20.50;9.90;;;0.20;99.90;;;;;;5040150;28;20225;-73
2022/01/12 02:35:22;;;;;;;22.00;11.67;;;0.30;99.90;;;;;;5056474;28;20652;-70
2022/01/12 02:41:18;;;;;;;21.47;11.23;;;0.20;99.90;;;;;;5052819;28;20220;-72
2022/01/12 02:50:44;;;;;;;21.17;11.60;;;0.10;99.90;;;;;;5054994;28;20667;-72
2022/01/12 02:53:41;;;;;;;23.70;12.83;;;0.20;99.90;;;;;;5037074;28;20219;-73
2022/01/12 02:56:35;;;;;;;25.83;12.27;;;0.20;99.90;;;;;;5050893;28;20239;-73
2022/01/12 02:59:24;;;;;;;23.23;12.07;;;0.30;99.90;;;;;;5049268;28;20224;-73
2022/01/12 03:02:24;;;;;;;24.80;13.03;;;0.20;99.90;;;;;;5055865;28;20248;-75
2022/01/12 03:08:29;;;;;;;23.83;12.60;;;0.20;99.90;;;;;;4999599;28;20217;-74
2022/01/12 03:11:21;;;;;;;26.70;13.43;;;0.20;99.90;;;;;;5044202;28;20257;-73
2022/01/12 03:14:12;;;;;;;29.83;14.93;;;0.20;99.90;;;;;;5038225;28;20228;-73
2022/01/12 03:17:02;;;;;;;27.20;13.33;;;0.30;99.90;;;;;;5045192;28;20224;-73
2022/01/12 03:19:52;;;;;;;29.53;13.80;;;0.30;99.90;;;;;;5039843;28;20227;-74
2022/01/12 03:22:41;;;;;;;28.43;14.17;;;0.30;99.90;;;;;;5043807;28;20274;-74
2022/01/12 03:25:30;;;;;;;29.30;14.80;;;0.40;99.90;;;;;;5051535;28;20596;-72
2022/01/12 03:28:20;;;;;;;28.57;13.57;;;0.30;99.90;;;;;;5043892;28;20220;-72
2022/01/12 03:31:17;;;;;;;30.67;14.23;;;0.30;99.90;;;;;;5055834;28;20302;-74
2022/01/12 03:34:09;;;;;;;26.97;14.17;;;0.30;99.90;;;;;;5048267;28;20220;-73
2022/01/12 03:37:17;;;;;;;31.37;14.47;;;0.20;99.90;;;;;;5050984;28;20757;-74
2022/01/12 03:40:07;;;;;;;29.27;14.63;;;0.20;99.90;;;;;;5040601;28;20728;-74
2022/01/12 03:42:56;;;;;;;32.03;15.17;;;0.20;99.90;;;;;;5054675;28;20255;-73
2022/01/12 03:45:48;;;;;;;28.47;14.67;;;0.20;99.90;;;;;;5053164;28;20220;-71
2022/01/12 03:48:37;;;;;;;30.53;15.60;;;0.20;99.90;;;;;;5045231;28;20247;-74
2022/01/12 03:51:26;;;;;;;28.60;15.97;;;0.30;99.90;;;;;;5056742;28;20315;-74
2022/01/12 03:54:15;;;;;;;28.53;14.50;;;0.20;99.90;;;;;;5059424;28;20694;-74
2022/01/12 03:57:04;;;;;;;31.77;15.40;;;0.20;99.90;;;;;;5051532;28;20229;-74
2022/01/12 03:59:53;;;;;;;32.93;15.70;;;0.20;99.90;;;;;;5041997;28;20732;-75
2022/01/12 04:02:43;;;;;;;31.93;15.23;;;0.10;99.90;;;;;;5037276;28;20231;-73
2022/01/12 04:08:18;;;;;;;33.80;17.00;;;0.10;99.90;;;;;;5054012;28;20304;-74
2022/01/12 04:08:49;;;;;;;34.53;16.40;;;0.10;99.90;;;;;;5036697;28;20231;-74
2022/01/12 04:11:38;;;;;;;36.57;17.20;;;0.10;99.90;;;;;;5043305;28;20227;-73
2022/01/12 04:14:27;;;;;;;38.63;18.43;;;0.00;99.90;;;;;;5059924;28;20230;-70
2022/01/12 04:17:15;;;;;;;38.23;17.50;;;0.00;99.90;;;;;;5053624;28;20216;-72
2022/01/12 04:20:09;;;;;;;32.37;16.77;;;0.00;99.90;;;;;;5040035;28;20220;-73
2022/01/12 04:26:09;;;;;;;40.40;19.53;;;0.00;99.90;;;;;;5043715;28;20224;-74
2022/01/12 04:28:58;;;;;;;36.30;18.40;;;0.10;99.90;;;;;;5038186;28;20235;-74
2022/01/12 04:31:47;;;;;;;39.33;19.83;;;-0.10;99.90;;;;;;5038722;28;20220;-73
2022/01/12 04:34:36;;;;;;;39.73;18.97;;;-0.10;99.90;;;;;;5039863;28;20227;-73
2022/01/12 04:37:26;;;;;;;38.73;18.80;;;0.00;99.90;;;;;;5053400;28;20244;-74
2022/01/12 04:40:15;;;;;;;39.53;19.83;;;-0.10;99.90;;;;;;5039425;28;20242;-73
2022/01/12 04:43:04;;;;;;;40.47;20.63;;;-0.10;99.90;;;;;;5050221;28;20251;-73
2022/01/12 04:46:21;;;;;;;39.47;19.27;;;-0.10;99.90;;;;;;5040098;28;20429;-73
2022/01/12 04:52:13;;;;;;;38.33;18.90;;;0.00;99.90;;;;;;5046245;28;20261;-72
2022/01/12 04:55:03;;;;;;;40.73;19.40;;;-0.10;99.90;;;;;;5055450;28;20760;-73
2022/01/12 04:57:52;;;;;;;40.50;19.83;;;0.00;99.90;;;;;;5040396;28;20230;-73
2022/01/12 05:00:42;;;;;;;41.47;20.27;;;-0.10;99.90;;;;;;5050656;28;20224;-72
2022/01/12 05:06:45;;;;;;;43.07;19.80;;;-0.10;99.90;;;;;;5037575;28;20224;-73
2022/01/12 05:10:01;;;;;;;47.47;22.67;;;-0.10;99.90;;;;;;5040077;28;20228;-73
2022/01/12 05:12:53;;;;;;;45.90;22.47;;;-0.20;99.90;;;;;;5042173;28;20243;-72
2022/01/12 05:15:44;;;;;;;46.07;22.70;;;-0.20;99.90;;;;;;5033666;28;20216;-74
2022/01/12 05:18:34;;;;;;;51.30;24.07;;;-0.20;99.90;;;;;;5040821;28;20364;-73
2022/01/12 05:21:26;;;;;;;46.50;22.37;;;-0.20;99.90;;;;;;5056955;28;20225;-72
2022/01/12 05:24:15;;;;;;;49.40;22.70;;;-0.10;99.90;;;;;;5055122;28;20315;-70
2022/01/12 05:27:05;;;;;;;49.10;23.00;;;0.00;99.90;;;;;;5047976;28;20253;-70
2022/01/12 05:29:55;;;;;;;44.60;22.00;;;0.00;99.90;;;;;;5039253;28;20616;-73
2022/01/12 05:32:45;;;;;;;47.20;23.17;;;0.00;99.90;;;;;;5041361;28;20643;-72
2022/01/12 05:35:35;;;;;;;47.70;23.80;;;-0.10;99.90;;;;;;5036307;28;20217;-73
2022/01/12 05:38:28;;;;;;;53.73;23.83;;;0.00;99.90;;;;;;5040896;28;20806;-74
2022/01/12 05:41:17;;;;;;;54.53;25.67;;;0.00;99.90;;;;;;5054454;28;20701;-73
2022/01/12 05:44:08;;;;;;;54.17;25.13;;;0.10;99.90;;;;;;5036855;28;20547;-73
2022/01/12 05:46:59;;;;;;;60.07;25.80;;;0.10;99.90;;;;;;5043504;28;20771;-71
2022/01/12 05:49:47;;;;;;;53.57;25.60;;;0.20;99.90;;;;;;5049203;28;20227;-73
2022/01/12 05:52:38;;;;;;;55.53;26.03;;;0.20;99.90;;;;;;5043137;28;20309;-74
2022/01/12 05:55:26;;;;;;;54.73;26.07;;;0.10;99.90;;;;;;5049732;28;20217;-73
2022/01/12 05:58:15;;;;;;;59.57;27.13;;;0.00;99.90;;;;;;5033080;28;20320;-74
2022/01/12 06:01:04;;;;;;;57.37;27.73;;;0.10;99.90;;;;;;5000245;28;20276;-72
2022/01/12 06:03:55;;;;;;;62.90;28.23;;;0.00;99.90;;;;;;5018755;28;20776;-73
2022/01/12 06:06:44;;;;;;;55.53;26.53;;;0.10;99.90;;;;;;5009337;28;20231;-71
2022/01/12 06:09:33;;;;;;;56.33;25.97;;;0.10;99.90;;;;;;5021611;28;20225;-72
2022/01/12 06:12:22;;;;;;;53.63;25.33;;;0.10;99.90;;;;;;5039211;28;20225;-67
2022/01/12 06:15:12;;;;;;;58.93;27.23;;;0.10;99.90;;;;;;5024831;28;20225;-72
2022/01/12 06:18:01;;;;;;;57.23;27.30;;;0.10;99.90;;;;;;5021621;28;20353;-72
2022/01/12 06:20:51;;;;;;;56.70;25.63;;;0.00;99.90;;;;;;5037039;28;20244;-71
2022/01/12 06:24:18;;;;;;;56.77;27.87;;;0.00;99.90;;;;;;5032039;28;20236;-71
2022/01/12 06:27:09;;;;;;;57.10;26.03;;;0.10;99.90;;;;;;5032212;28;20229;-75
2022/01/12 06:31:10;;;;;;;57.80;25.60;;;0.10;99.90;;;;;;5021971;28;20229;-73
2022/01/12 06:33:13;;;;;;;60.97;25.97;;;0.10;99.90;;;;;;5026435;28;20891;-73
2022/01/12 06:36:04;;;;;;;54.97;25.93;;;0.10;99.90;;;;;;5023668;28;20695;-72
2022/01/12 06:38:52;;;;;;;60.63;27.53;;;0.00;99.90;;;;;;5025271;28;20331;-75
2022/01/12 06:41:42;;;;;;;59.93;27.07;;;0.00;99.90;;;;;;5036236;28;20229;-74
2022/01/12 06:44:31;;;;;;;54.13;25.50;;;0.00;99.90;;;;;;5033078;28;20844;-74
2022/01/12 06:47:20;;;;;;;57.97;25.73;;;0.20;99.90;;;;;;5032537;28;20251;-73
2022/01/12 06:50:13;;;;;;;60.60;25.83;;;0.10;99.90;;;;;;5034548;28;20220;-72
2022/01/12 06:53:03;;;;;;;56.47;26.37;;;0.10;99.90;;;;;;5034813;28;20296;-75
2022/01/12 06:55:52;;;;;;;64.87;27.60;;;0.10;99.90;;;;;;5039865;28;20653;-75
2022/01/12 06:58:40;;;;;;;69.03;30.67;;;0.10;99.90;;;;;;5032182;28;20356;-75
2022/01/12 07:01:30;;;;;;;69.93;30.17;;;0.10;99.90;;;;;;5041369;28;20235;-71
2022/01/12 07:04:20;;;;;;;68.10;30.70;;;0.10;99.90;;;;;;5046146;28;20218;-78
2022/01/12 07:07:10;;;;;;;60.17;28.13;;;0.20;99.90;;;;;;5055475;28;20224;-79
2022/01/12 07:10:02;;;;;;;57.73;26.90;;;0.10;99.90;;;;;;5041175;28;20588;-72
2022/01/12 07:12:54;;;;;;;55.10;26.30;;;0.10;99.90;;;;;;5038821;28;20336;-69
2022/01/12 07:15:44;;;;;;;55.17;26.33;;;0.10;99.90;;;;;;5047265;28;20227;-72
2022/01/12 07:18:33;;;;;;;59.23;25.80;;;0.10;99.90;;;;;;5039592;28;20236;-69
2022/01/12 07:21:22;;;;;;;55.70;25.53;;;0.10;99.90;;;;;;5039096;28;20714;-68
2022/01/12 07:24:11;;;;;;;52.63;25.20;;;0.20;99.90;;;;;;5041210;28;20227;-69
2022/01/12 07:27:01;;;;;;;52.27;24.00;;;0.20;99.90;;;;;;5050742;28;20215;-68
2022/01/12 07:29:50;;;;;;;50.80;22.77;;;0.20;99.90;;;;;;5060236;28;20226;-68
2022/01/12 07:32:38;;;;;;;51.27;22.87;;;0.30;99.90;;;;;;5046579;28;20227;-68
2022/01/12 07:35:27;;;;;;;51.37;22.93;;;0.30;99.90;;;;;;5053867;28;20216;-68
2022/01/12 07:38:16;;;;;;;48.47;24.13;;;0.30;99.90;;;;;;5048092;28;20224;-68
2022/01/12 07:41:05;;;;;;;48.23;21.60;;;0.20;99.90;;;;;;5054116;28;20231;-67
2022/01/12 07:43:54;;;;;;;47.13;21.87;;;0.30;99.90;;;;;;5056084;28;21045;-66
2022/01/12 07:46:43;;;;;;;39.63;19.47;;;0.40;99.90;;;;;;5043471;28;20229;-69
2022/01/12 07:49:34;;;;;;;34.53;18.07;;;0.40;99.90;;;;;;5053165;28;20231;-71
2022/01/12 07:52:23;;;;;;;42.07;19.57;;;0.20;99.90;;;;;;5052762;28;20231;-68
2022/01/12 07:55:12;;;;;;;41.00;18.77;;;0.30;99.90;;;;;;5043855;28;20298;-68
2022/01/12 07:58:00;;;;;;;43.40;20.40;;;0.40;99.90;;;;;;5053639;28;20227;-74
2022/01/12 08:00:50;;;;;;;45.07;20.10;;;0.40;99.90;;;;;;5051071;28;20250;-75
2022/01/12 08:03:40;;;;;;;39.23;17.53;;;0.50;99.90;;;;;;5038337;28;20318;-75
2022/01/12 08:06:28;;;;;;;35.77;17.63;;;0.50;99.90;;;;;;5054243;28;20347;-73
2022/01/12 08:09:17;;;;;;;38.10;17.83;;;0.60;99.90;;;;;;5043375;28;20232;-75
2022/01/12 08:12:07;;;;;;;37.50;16.70;;;0.70;99.90;;;;;;5047609;28;20224;-76
2022/01/12 08:14:55;;;;;;;35.60;16.23;;;0.80;99.90;;;;;;5042676;28;20677;-75
2022/01/12 08:17:45;;;;;;;30.67;16.30;;;0.70;99.90;;;;;;5052701;28;20220;-75
2022/01/12 08:20:34;;;;;;;32.63;16.03;;;0.80;99.90;;;;;;5058281;28;20226;-75
2022/01/12 08:23:23;;;;;;;33.30;16.27;;;0.70;99.90;;;;;;5047828;28;20223;-77
2022/01/12 08:26:11;;;;;;;29.77;15.70;;;0.70;99.90;;;;;;5043441;28;20604;-76
2022/01/12 08:29:00;;;;;;;31.63;14.47;;;0.70;99.90;;;;;;5057862;28;20223;-75
2022/01/12 08:31:49;;;;;;;33.67;14.40;;;0.70;99.90;;;;;;5043499;28;20228;-75
2022/01/12 08:34:39;;;;;;;32.27;14.37;;;0.70;99.90;;;;;;5057293;28;20285;-75
2022/01/12 08:37:27;;;;;;;26.60;13.53;;;0.80;99.90;;;;;;5054195;28;20220;-76
2022/01/12 08:40:18;;;;;;;23.27;11.90;;;0.90;99.90;;;;;;5053655;28;20313;-76
2022/01/12 08:43:07;;;;;;;24.33;12.57;;;0.90;99.90;;;;;;5057292;28;20273;-76
2022/01/12 08:45:56;;;;;;;27.50;13.53;;;0.90;99.90;;;;;;5040895;28;20224;-75
2022/01/12 08:48:44;;;;;;;27.63;11.77;;;1.00;99.90;;;;;;5055019;28;20303;-75
2022/01/12 08:51:35;;;;;;;35.63;14.13;;;1.10;99.90;;;;;;5062331;28;20212;-72
2022/01/12 08:54:23;;;;;;;28.47;12.50;;;1.30;99.90;;;;;;5048502;28;20228;-74
2022/01/12 08:57:12;;;;;;;23.83;12.63;;;1.30;99.90;;;;;;5055045;28;20240;-76
2022/01/12 09:00:01;;;;;;;19.60;11.53;;;1.30;99.90;;;;;;5058134;28;20728;-73
2022/01/12 09:02:50;;;;;;;21.60;11.30;;;1.30;99.90;;;;;;5043083;28;20232;-75
2022/01/12 09:05:39;;;;;;;19.80;10.37;;;1.20;99.90;;;;;;5056794;28;20228;-75
2022/01/12 09:08:29;;;;;;;20.53;11.70;;;1.20;99.90;;;;;;5043959;28;20220;-75
2022/01/12 09:11:18;;;;;;;22.87;10.13;;;1.30;99.90;;;;;;5054881;28;21001;-75
2022/01/12 09:14:07;;;;;;;20.83;9.83;;;1.30;99.90;;;;;;5053993;28;20235;-74
2022/01/12 09:16:57;;;;;;;19.47;9.60;;;1.50;99.90;;;;;;5041013;28;20235;-74
2022/01/12 09:19:46;;;;;;;19.30;9.20;;;1.60;99.90;;;;;;5052107;28;20216;-75
2022/01/12 09:22:37;;;;;;;19.20;8.73;;;1.70;99.90;;;;;;5041325;28;20307;-74
2022/01/12 09:25:27;;;;;;;18.70;9.00;;;1.80;99.90;;;;;;5046180;28;20370;-73
2022/01/12 09:28:17;;;;;;;19.07;8.57;;;1.70;99.90;;;;;;5056238;28;20625;-74
2022/01/12 09:31:06;;;;;;;13.60;7.13;;;1.80;99.90;;;;;;5052220;28;20232;-76
2022/01/12 09:33:54;;;;;;;16.00;7.90;;;1.70;99.90;;;;;;5055977;28;20224;-74
2022/01/12 09:36:43;;;;;;;15.47;8.40;;;1.70;99.90;;;;;;5055714;28;20216;-75
2022/01/12 09:39:34;;;;;;;16.33;8.93;;;1.70;99.90;;;;;;5041005;28;20223;-75
2022/01/12 09:42:24;;;;;;;16.23;8.10;;;1.80;99.90;;;;;;5039931;28;20228;-75
2022/01/12 09:45:15;;;;;;;15.97;8.30;;;1.80;99.90;;;;;;5040017;28;20284;-74
2022/01/12 09:48:04;;;;;;;14.50;7.80;;;1.80;99.90;;;;;;5049900;28;20220;-75
2022/01/12 09:50:54;;;;;;;15.57;7.60;;;1.80;99.90;;;;;;5042979;28;20239;-76
2022/01/12 09:53:44;;;;;;;19.23;8.67;;;1.70;99.90;;;;;;5040845;28;20227;-75
2022/01/12 09:56:32;;;;;;;15.17;8.17;;;1.70;99.90;;;;;;5054400;28;20251;-73
2022/01/12 09:59:29;;;;;;;21.80;10.03;;;1.60;99.90;;;;;;5049406;28;20320;-74
2022/01/12 10:02:19;;;;;;;17.27;9.03;;;1.70;99.90;;;;;;5053981;28;20236;-74
2022/01/12 10:05:10;;;;;;;17.47;8.37;;;1.70;99.90;;;;;;5042875;28;20255;-76
2022/01/12 10:08:12;;;;;;;18.20;9.17;;;1.60;99.90;;;;;;5053008;28;20554;-75
2022/01/12 10:11:05;;;;;;;19.97;9.20;;;1.50;99.90;;;;;;5056600;28;20230;-73
2022/01/12 10:13:57;;;;;;;23.80;10.50;;;1.60;99.90;;;;;;5046363;28;20224;-75
2022/01/12 10:16:56;;;;;;;20.57;8.93;;;1.70;99.90;;;;;;5039551;28;20208;-76
2022/01/12 10:19:45;;;;;;;18.70;9.43;;;1.70;99.90;;;;;;5050672;28;20217;-75
2022/01/12 10:22:35;;;;;;;24.33;10.20;;;1.70;99.90;;;;;;5036937;28;20363;-75
2022/01/12 10:25:24;;;;;;;22.00;10.20;;;1.70;99.90;;;;;;5055114;28;20722;-75
2022/01/12 10:28:15;;;;;;;26.20;11.50;;;1.50;99.90;;;;;;5044281;28;20220;-75
2022/01/12 10:31:05;;;;;;;18.10;10.00;;;1.50;99.90;;;;;;5041756;28;20228;-76
2022/01/12 10:34:03;;;;;;;19.70;9.70;;;1.50;99.90;;;;;;5038819;28;20219;-72
2022/01/12 10:36:53;;;;;;;20.07;10.27;;;1.40;99.90;;;;;;5036615;28;20271;-73
2022/01/12 10:39:43;;;;;;;21.37;11.10;;;1.50;99.90;;;;;;5030635;28;20646;-75
2022/01/12 10:42:32;;;;;;;21.13;11.00;;;1.50;99.90;;;;;;5053442;28;20217;-74
2022/01/12 10:45:21;;;;;;;18.50;10.27;;;1.50;99.90;;;;;;5052689;28;20220;-74
2022/01/12 10:48:10;;;;;;;26.60;10.97;;;1.60;99.90;;;;;;5035818;28;20226;-75
2022/01/12 10:51:00;;;;;;;23.30;11.03;;;1.50;99.90;;;;;;5036036;28;20225;-74
2022/01/12 10:53:50;;;;;;;21.77;11.20;;;1.60;99.90;;;;;;5052022;28;21658;-75
2022/01/12 10:56:41;;;;;;;21.33;10.03;;;1.60;99.90;;;;;;5057835;28;20221;-74
2022/01/12 10:59:30;;;;;;;19.90;9.70;;;1.60;99.90;;;;;;5047318;28;20235;-75
2022/01/12 11:02:19;;;;;;;21.10;10.67;;;1.70;99.90;;;;;;5040491;28;20246;-76
2022/01/12 11:05:09;;;;;;;27.07;12.67;;;1.70;99.90;;;;;;5051937;28;20224;-77
2022/01/12 11:07:59;;;;;;;26.27;11.50;;;2.00;99.90;;;;;;5055671;28;20247;-75
2022/01/12 11:10:49;;;;;;;23.13;11.20;;;2.00;99.90;;;;;;5033462;28;20224;-77
2022/01/12 11:13:38;;;;;;;26.07;11.87;;;1.80;99.90;;;;;;5043678;28;20225;-75
2022/01/12 11:16:28;;;;;;;23.93;11.47;;;2.00;99.90;;;;;;5058864;28;20227;-73
2022/01/12 11:19:17;;;;;;;30.43;11.93;;;1.90;99.90;;;;;;5057261;28;20231;-75
2022/01/12 11:22:17;;;;;;;22.77;10.67;;;2.00;99.90;;;;;;5056818;28;20326;-74
2022/01/12 11:25:20;;;;;;;23.77;11.03;;;2.10;99.90;;;;;;5037856;28;20228;-75
2022/01/12 11:28:11;;;;;;;23.50;11.03;;;2.10;99.90;;;;;;5052291;28;20228;-75
2022/01/12 11:31:02;;;;;;;23.80;11.73;;;2.00;99.90;;;;;;5056207;28;20235;-76
2022/01/12 11:33:51;;;;;;;23.97;12.90;;;2.00;99.90;;;;;;5053666;28;20327;-78
2022/01/12 11:36:41;;;;;;;23.80;11.43;;;2.00;99.90;;;;;;5056794;28;20228;-77
2022/01/12 11:39:33;;;;;;;25.63;12.83;;;2.00;99.90;;;;;;5040513;28;20212;-76
2022/01/12 11:42:23;;;;;;;20.30;11.67;;;1.80;99.90;;;;;;5053891;28;20220;-76
2022/01/12 11:45:21;;;;;;;21.20;11.37;;;1.70;99.90;;;;;;5051559;28;20213;-76
2022/01/12 11:48:10;;;;;;;22.87;12.17;;;1.70;99.90;;;;;;5054242;28;20225;-73
2022/01/12 11:50:59;;;;;;;31.57;14.57;;;1.80;99.90;;;;;;5061489;28;20243;-76
2022/01/12 11:53:51;;;;;;;24.87;12.67;;;1.80;99.90;;;;;;5057640;28;20271;-75
2022/01/12 11:56:53;;;;;;;21.77;11.50;;;2.10;99.90;;;;;;5034983;28;20331;-75
2022/01/12 11:59:54;;;;;;;22.00;11.70;;;2.00;99.90;;;;;;5048144;28;22752;-75
2022/01/12 12:02:44;;;;;;;23.30;11.90;;;2.10;99.90;;;;;;5056390;28;20778;-75
2022/01/12 12:05:34;;;;;;;26.57;11.20;;;2.20;99.90;;;;;;5042526;28;20217;-75
2022/01/12 12:08:26;;;;;;;23.33;11.77;;;2.20;99.90;;;;;;5057709;28;20227;-75
2022/01/12 12:11:15;;;;;;;27.33;13.47;;;2.30;99.90;;;;;;5059649;28;20213;-75
2022/01/12 12:14:06;;;;;;;26.80;12.30;;;2.30;99.90;;;;;;5059375;28;20228;-77
2022/01/12 12:16:57;;;;;;;24.17;12.77;;;2.20;99.90;;;;;;5061789;28;20231;-75
2022/01/12 12:19:46;;;;;;;26.87;12.13;;;1.90;99.90;;;;;;5045691;28;20577;-74
2022/01/12 12:22:38;;;;;;;30.23;15.13;;;2.00;99.90;;;;;;5055621;28;20701;-76
2022/01/12 12:25:28;;;;;;;30.90;15.80;;;2.00;99.90;;;;;;5042528;28;20212;-76
2022/01/12 12:28:17;;;;;;;27.73;14.60;;;1.90;99.90;;;;;;5053931;28;20223;-74
2022/01/12 12:31:09;;;;;;;26.47;14.17;;;1.90;99.90;;;;;;5040361;28;20220;-76
2022/01/12 12:34:06;;;;;;;26.63;15.70;;;1.80;99.90;;;;;;5054441;28;20258;-76
2022/01/12 12:37:00;;;;;;;28.93;15.67;;;1.70;99.90;;;;;;5059175;28;20216;-75
2022/01/12 12:39:49;;;;;;;27.77;15.17;;;1.80;99.90;;;;;;5057865;28;20238;-75
2022/01/12 12:42:38;;;;;;;31.10;14.70;;;1.80;99.90;;;;;;5057706;28;20220;-75
2022/01/12 12:45:39;;;;;;;24.43;14.00;;;1.80;99.90;;;;;;5054692;28;20726;-74
2022/01/12 12:48:31;;;;;;;31.90;14.80;;;2.00;99.90;;;;;;5058534;28;20819;-76
2022/01/12 12:51:21;;;;;;;28.50;14.47;;;2.10;99.90;;;;;;5054666;28;20208;-76
2022/01/12 12:54:10;;;;;;;29.47;15.33;;;2.00;99.90;;;;;;5037323;28;20715;-75
2022/01/12 12:57:21;;;;;;;28.53;15.33;;;1.90;99.90;;;;;;5044180;28;20220;-75
2022/01/12 13:00:13;;;;;;;38.43;19.47;;;1.90;99.90;;;;;;5051229;28;20229;-75
2022/01/12 13:03:03;;;;;;;35.33;17.07;;;1.70;99.90;;;;;;5041102;28;20865;-76
2022/01/12 13:05:52;;;;;;;32.70;17.07;;;1.70;99.90;;;;;;5052999;28;20795;-75
2022/01/12 13:08:52;;;;;;;35.30;17.57;;;1.70;99.90;;;;;;5036587;28;20221;-75
2022/01/12 13:11:44;;;;;;;34.27;17.57;;;1.70;99.90;;;;;;5040360;28;20361;-76
2022/01/12 13:14:42;;;;;;;35.33;19.97;;;1.80;99.90;;;;;;5051541;28;20308;-75
2022/01/12 13:17:31;;;;;;;39.03;19.83;;;1.80;99.90;;;;;;5050164;28;20220;-75
2022/01/12 13:23:33;;;;;;;39.77;19.57;;;1.70;99.90;;;;;;5053223;28;20532;-75
2022/01/12 13:26:31;;;;;;;38.70;19.53;;;1.70;99.90;;;;;;5043534;28;20264;-75
2022/01/12 13:29:20;;;;;;;39.47;19.87;;;1.60;99.90;;;;;;5044892;28;20285;-75
2022/01/12 13:32:11;;;;;;;39.97;20.37;;;1.60;99.90;;;;;;5039135;28;20217;-76
2022/01/12 13:35:03;;;;;;;37.23;19.50;;;1.60;99.90;;;;;;5055476;28;20223;-75
2022/01/12 13:37:54;;;;;;;40.43;18.80;;;1.70;99.90;;;;;;5052457;28;20230;-75
2022/01/12 13:41:13;;;;;;;45.50;19.57;;;1.70;99.90;;;;;;5057489;28;20287;-76
2022/01/12 13:44:08;;;;;;;44.10;20.93;;;1.70;99.90;;;;;;5042541;28;20243;-75
2022/01/12 13:47:06;;;;;;;40.73;20.97;;;1.70;99.90;;;;;;5042259;28;20316;-74
2022/01/12 13:50:06;;;;;;;41.67;20.53;;;1.60;99.90;;;;;;5046612;28;20227;-75
2022/01/12 13:52:55;;;;;;;45.30;21.80;;;1.60;99.90;;;;;;5035881;28;20220;-76
2022/01/12 13:55:53;;;;;;;45.27;22.40;;;1.60;99.90;;;;;;5052868;28;20732;-77
2022/01/12 13:58:42;;;;;;;43.80;24.37;;;1.60;99.90;;;;;;5058307;28;20246;-75
2022/01/12 14:01:33;;;;;;;48.30;25.57;;;1.60;99.90;;;;;;5043951;28;20219;-73
2022/01/12 14:04:34;;;;;;;51.33;24.37;;;1.50;99.90;;;;;;5048355;28;20234;-75
2022/01/12 14:07:24;;;;;;;48.83;24.60;;;1.50;99.90;;;;;;5055050;28;20297;-76
2022/01/12 14:10:12;;;;;;;48.57;23.67;;;1.60;99.90;;;;;;5040789;28;20217;-76
2022/01/12 14:13:01;;;;;;;68.70;35.20;;;1.50;99.90;;;;;;5037466;28;20235;-75
2022/01/12 14:15:49;;;;;;;46.80;23.30;;;1.60;99.90;;;;;;5048535;28;20300;-73
2022/01/12 14:18:40;;;;;;;42.10;22.63;;;1.50;99.90;;;;;;5031054;28;20224;-77
2022/01/12 14:21:29;;;;;;;44.37;23.07;;;1.40;99.90;;;;;;5047431;28;20223;-77
2022/01/12 14:24:18;;;;;;;47.67;23.20;;;1.30;99.90;;;;;;5050832;28;20282;-74
2022/01/12 14:27:07;;;;;;;49.03;23.30;;;1.40;99.90;;;;;;5052345;28;20220;-76
2022/01/12 14:29:55;;;;;;;46.40;22.90;;;1.30;99.90;;;;;;5039782;28;20232;-75
2022/01/12 14:32:45;;;;;;;41.40;21.63;;;1.20;99.90;;;;;;5045889;28;20225;-76
2022/01/12 14:35:37;;;;;;;40.67;20.87;;;1.10;99.90;;;;;;5057255;28;20228;-76
2022/01/12 14:38:26;;;;;;;42.47;21.43;;;1.10;99.90;;;;;;5043123;28;20243;-77
2022/01/12 14:41:14;;;;;;;43.27;20.87;;;1.00;99.90;;;;;;5056260;28;20757;-69
2022/01/12 14:44:03;;;;;;;44.13;21.13;;;1.00;99.90;;;;;;5057366;28;20261;-70
2022/01/12 14:46:52;;;;;;;41.90;21.20;;;1.00;99.90;;;;;;5054726;28;20231;-70
2022/01/12 14:49:41;;;;;;;43.40;21.50;;;1.10;99.90;;;;;;5041056;28;20252;-70
2022/01/12 14:52:31;;;;;;;42.57;20.57;;;1.00;99.90;;;;;;5044791;28;20216;-68
2022/01/12 14:55:20;;;;;;;43.10;21.37;;;1.10;99.90;;;;;;5040888;28;20221;-69
2022/01/12 14:58:13;;;;;;;43.33;20.77;;;1.00;99.90;;;;;;5038915;28;20239;-70
2022/01/12 15:01:02;;;;;;;46.70;22.93;;;1.10;99.90;;;;;;5051984;28;20217;-68
2022/01/12 15:03:51;;;;;;;47.70;23.07;;;1.10;99.90;;;;;;5058790;28;20320;-69
2022/01/12 15:06:40;;;;;;;52.10;23.10;;;1.10;99.90;;;;;;5041944;28;20241;-67
2022/01/12 15:09:32;;;;;;;48.37;20.97;;;1.10;99.90;;;;;;5046557;28;20243;-69
2022/01/12 15:12:27;;;;;;;45.30;21.50;;;1.20;99.90;;;;;;5050593;28;20639;-68
2022/01/12 15:15:17;;;;;;;41.13;20.00;;;1.20;99.90;;;;;;5059060;28;20623;-69
2022/01/12 15:18:05;;;;;;;44.90;22.30;;;1.20;99.90;;;;;;5041644;28;20224;-69
2022/01/12 15:20:54;;;;;;;42.00;21.50;;;1.20;99.90;;;;;;5060580;28;20591;-69
2022/01/12 15:23:43;;;;;;;44.77;21.73;;;1.30;99.90;;;;;;5056136;28;20598;-70
2022/01/12 15:26:33;;;;;;;44.37;21.53;;;1.30;99.90;;;;;;5042098;28;20220;-68
2022/01/12 15:29:22;;;;;;;43.93;22.53;;;1.30;99.90;;;;;;5058609;28;20290;-69
2022/01/12 15:32:11;;;;;;;43.50;23.10;;;1.30;99.90;;;;;;5057570;28;20229;-68
2022/01/12 15:35:17;;;;;;;47.77;22.23;;;1.20;99.90;;;;;;5039680;28;20363;-70
2022/01/12 15:38:07;;;;;;;48.50;24.27;;;1.20;99.90;;;;;;5056226;28;20671;-71
2022/01/12 15:40:56;;;;;;;48.27;25.03;;;1.00;99.90;;;;;;5057125;28;20227;-71